sensor_id;sensor_type;location;lat;lon;timestamp;pressure;altitude;pressure_sealevel;temperature;humidity
54308;BME280;40208;39.778;2.710;2023-08-21T00:00:47;101618.88;;;26.90;100.00
54308;BME280;40208;39.778;2.710;2023-08-21T00:03:32;101666.72;;;27.20;100.00
54308;BME280;40208;39.778;2.710;2023-08-21T00:06:18;101682.53;;;27.34;100.00
54308;BME280;40208;39.778;2.710;2023-08-21T00:09:03;101662.50;;;27.25;100.00
54308;BME280;40208;39.778;2.710;2023-08-21T00:11:49;101651.81;;;27.14;100.00
54308;BME280;40208;39.778;2.710;2023-08-21T00:14:33;101603.72;;;26.87;100.00
54308;BME280;40208;39.778;2.710;2023-08-21T00:17:18;101583.72;;;26.78;100.00
54308;BME280;40208;39.778;2.710;2023-08-21T00:20:04;101628.22;;;27.05;100.00
54308;BME280;40208;39.778;2.710;2023-08-21T00:22:49;101667.09;;;27.25;100.00
54308;BME280;40208;39.778;2.710;2023-08-21T00:25:33;101667.09;;;27.25;100.00
54308;BME280;40208;39.778;2.710;2023-08-21T00:28:18;101675.34;;;27.33;100.00
54308;BME280;40208;39.778;2.710;2023-08-21T00:31:03;101659.06;;;27.23;100.00
54308;BME280;40208;39.778;2.710;2023-08-21T00:33:48;101619.41;;;26.93;100.00
54308;BME280;40208;39.778;2.710;2023-08-21T00:36:33;101508.53;;;26.32;100.00
54308;BME280;40208;39.778;2.710;2023-08-21T00:39:18;101678.06;;;27.33;100.00
54308;BME280;40208;39.778;2.710;2023-08-21T00:42:03;101656.97;;;27.17;100.00
54308;BME280;40208;39.778;2.710;2023-08-21T00:44:48;101548.19;;;26.52;100.00
54308;BME280;40208;39.778;2.710;2023-08-21T00:47:32;101539.56;;;26.39;100.00
54308;BME280;40208;39.778;2.710;2023-08-21T00:50:17;101626.75;;;26.93;100.00
54308;BME280;40208;39.778;2.710;2023-08-21T00:53:02;101652.28;;;27.10;100.00
54308;BME280;40208;39.778;2.710;2023-08-21T00:55:51;101587.22;;;26.71;100.00
54308;BME280;40208;39.778;2.710;2023-08-21T00:58:36;101611.19;;;26.85;100.00
54308;BME280;40208;39.778;2.710;2023-08-21T01:01:24;101603.25;;;26.74;100.00
54308;BME280;40208;39.778;2.710;2023-08-21T01:04:11;101630.50;;;26.92;100.00
54308;BME280;40208;39.778;2.710;2023-08-21T01:06:57;101580.69;;;26.63;100.00
54308;BME280;40208;39.778;2.710;2023-08-21T01:09:48;101463.56;;;25.92;100.00
54308;BME280;40208;39.778;2.710;2023-08-21T01:12:37;101663.50;;;27.06;100.00
54308;BME280;40208;39.778;2.710;2023-08-21T01:15:25;101618.88;;;26.72;100.00
54308;BME280;40208;39.778;2.710;2023-08-21T01:18:10;101630.56;;;26.82;100.00
54308;BME280;40208;39.778;2.710;2023-08-21T01:20:57;101658.72;;;26.91;100.00
54308;BME280;40208;39.778;2.710;2023-08-21T01:23:42;101642.31;;;26.82;100.00
54308;BME280;40208;39.778;2.710;2023-08-21T01:26:28;101670.78;;;26.88;100.00
54308;BME280;40208;39.778;2.710;2023-08-21T01:29:13;101644.00;;;26.65;100.00
54308;BME280;40208;39.778;2.710;2023-08-21T01:34:55;101559.66;;;26.10;100.00
54308;BME280;40208;39.778;2.710;2023-08-21T01:37:41;101623.00;;;26.58;100.00
54308;BME280;40208;39.778;2.710;2023-08-21T01:40:26;101676.16;;;26.80;100.00
54308;BME280;40208;39.778;2.710;2023-08-21T01:43:11;101680.59;;;26.81;100.00
54308;BME280;40208;39.778;2.710;2023-08-21T01:45:56;101678.03;;;26.79;100.00
54308;BME280;40208;39.778;2.710;2023-08-21T01:48:41;101613.59;;;26.42;100.00
54308;BME280;40208;39.778;2.710;2023-08-21T01:51:26;101624.63;;;26.41;100.00
54308;BME280;40208;39.778;2.710;2023-08-21T01:54:11;101646.09;;;26.54;100.00
54308;BME280;40208;39.778;2.710;2023-08-21T01:56:55;101535.84;;;25.85;100.00
54308;BME280;40208;39.778;2.710;2023-08-21T01:59:41;101551.06;;;26.05;100.00
54308;BME280;40208;39.778;2.710;2023-08-21T02:02:26;101668.13;;;26.78;100.00
54308;BME280;40208;39.778;2.710;2023-08-21T02:05:11;101632.59;;;26.52;100.00
54308;BME280;40208;39.778;2.710;2023-08-21T02:07:56;101632.50;;;26.44;100.00
54308;BME280;40208;39.778;2.710;2023-08-21T02:10:50;101622.41;;;26.36;100.00
54308;BME280;40208;39.778;2.710;2023-08-21T02:13:35;101659.25;;;26.58;100.00
54308;BME280;40208;39.778;2.710;2023-08-21T02:16:20;101660.25;;;26.57;100.00
54308;BME280;40208;39.778;2.710;2023-08-21T02:19:06;101628.38;;;26.40;100.00
54308;BME280;40208;39.778;2.710;2023-08-21T02:21:51;101598.41;;;26.22;100.00
54308;BME280;40208;39.778;2.710;2023-08-21T02:24:36;101657.84;;;26.54;100.00
54308;BME280;40208;39.778;2.710;2023-08-21T02:27:21;101607.25;;;26.24;100.00
54308;BME280;40208;39.778;2.710;2023-08-21T02:30:06;101597.84;;;26.18;100.00
54308;BME280;40208;39.778;2.710;2023-08-21T02:32:52;101657.69;;;26.56;100.00
54308;BME280;40208;39.778;2.710;2023-08-21T02:35:37;101638.94;;;26.43;100.00
54308;BME280;40208;39.778;2.710;2023-08-21T02:38:22;101641.97;;;26.40;100.00
54308;BME280;40208;39.778;2.710;2023-08-21T02:41:06;101648.94;;;26.52;100.00
54308;BME280;40208;39.778;2.710;2023-08-21T02:43:52;101650.94;;;26.50;100.00
54308;BME280;40208;39.778;2.710;2023-08-21T02:46:37;101631.56;;;26.35;100.00
54308;BME280;40208;39.778;2.710;2023-08-21T02:49:21;101641.97;;;26.40;100.00
54308;BME280;40208;39.778;2.710;2023-08-21T02:52:07;101641.59;;;26.35;100.00
54308;BME280;40208;39.778;2.710;2023-08-21T02:54:51;101575.63;;;25.86;100.00
54308;BME280;40208;39.778;2.710;2023-08-21T02:57:36;101622.78;;;26.14;100.00
54308;BME280;40208;39.778;2.710;2023-08-21T03:00:21;101633.94;;;26.20;100.00
54308;BME280;40208;39.778;2.710;2023-08-21T03:03:05;101547.38;;;25.69;100.00
54308;BME280;40208;39.778;2.710;2023-08-21T03:05:50;101533.09;;;25.57;100.00
54308;BME280;40208;39.778;2.710;2023-08-21T03:08:35;101628.53;;;26.11;100.00
54308;BME280;40208;39.778;2.710;2023-08-21T03:11:19;101627.69;;;26.10;100.00
54308;BME280;40208;39.778;2.710;2023-08-21T03:14:04;101558.50;;;25.75;100.00
54308;BME280;40208;39.778;2.710;2023-08-21T03:16:49;101609.69;;;25.99;100.00
54308;BME280;40208;39.778;2.710;2023-08-21T03:19:34;101616.81;;;26.10;100.00
54308;BME280;40208;39.778;2.710;2023-08-21T03:22:19;101553.97;;;25.66;100.00
54308;BME280;40208;39.778;2.710;2023-08-21T03:25:04;101605.41;;;25.97;100.00
54308;BME280;40208;39.778;2.710;2023-08-21T03:27:49;101609.97;;;25.96;100.00
54308;BME280;40208;39.778;2.710;2023-08-21T03:30:34;101615.91;;;26.10;100.00
54308;BME280;40208;39.778;2.710;2023-08-21T03:33:19;101576.25;;;25.79;100.00
54308;BME280;40208;39.778;2.710;2023-08-21T03:36:04;101605.66;;;26.04;100.00
54308;BME280;40208;39.778;2.710;2023-08-21T03:38:48;101590.69;;;25.90;100.00
54308;BME280;40208;39.778;2.710;2023-08-21T03:41:33;101624.53;;;26.05;100.00
54308;BME280;40208;39.778;2.710;2023-08-21T03:44:18;101621.97;;;26.04;100.00
54308;BME280;40208;39.778;2.710;2023-08-21T03:47:03;101538.84;;;25.54;100.00
54308;BME280;40208;39.778;2.710;2023-08-21T03:49:48;101525.03;;;25.37;100.00
54308;BME280;40208;39.778;2.710;2023-08-21T03:52:32;101629.44;;;26.01;100.00
54308;BME280;40208;39.778;2.710;2023-08-21T03:55:17;101574.72;;;25.57;100.00
54308;BME280;40208;39.778;2.710;2023-08-21T03:58:01;101505.19;;;25.08;100.00
54308;BME280;40208;39.778;2.710;2023-08-21T04:00:46;101507.63;;;25.11;100.00
54308;BME280;40208;39.778;2.710;2023-08-21T04:03:31;101602.31;;;25.72;100.00
54308;BME280;40208;39.778;2.710;2023-08-21T04:06:16;101634.91;;;25.92;100.00
54308;BME280;40208;39.778;2.710;2023-08-21T04:09:00;101637.06;;;25.88;100.00
54308;BME280;40208;39.778;2.710;2023-08-21T04:11:45;101626.94;;;25.71;100.00
54308;BME280;40208;39.778;2.710;2023-08-21T04:14:30;101582.81;;;25.39;100.00
54308;BME280;40208;39.778;2.710;2023-08-21T04:17:15;101644.09;;;25.71;100.00
54308;BME280;40208;39.778;2.710;2023-08-21T04:20:05;101544.63;;;25.12;100.00
54308;BME280;40208;39.778;2.710;2023-08-21T04:22:49;101642.41;;;25.70;100.00
54308;BME280;40208;39.778;2.710;2023-08-21T04:25:34;101642.94;;;25.74;100.00
54308;BME280;40208;39.778;2.710;2023-08-21T04:28:19;101552.50;;;25.25;100.00
54308;BME280;40208;39.778;2.710;2023-08-21T04:31:08;101549.78;;;25.15;100.00
54308;BME280;40208;39.778;2.710;2023-08-21T04:33:52;101643.25;;;25.71;100.00
54308;BME280;40208;39.778;2.710;2023-08-21T04:36:37;101615.69;;;25.46;100.00
54308;BME280;40208;39.778;2.710;2023-08-21T04:39:22;101655.84;;;25.62;100.00
54308;BME280;40208;39.778;2.710;2023-08-21T04:42:07;101644.44;;;25.49;100.00
54308;BME280;40208;39.778;2.710;2023-08-21T04:44:52;101601.88;;;25.20;100.00
54308;BME280;40208;39.778;2.710;2023-08-21T04:47:37;101616.13;;;25.22;100.00
54308;BME280;40208;39.778;2.710;2023-08-21T04:50:22;101619.44;;;25.26;100.00
54308;BME280;40208;39.778;2.710;2023-08-21T04:53:06;101630.44;;;25.34;100.00
54308;BME280;40208;39.778;2.710;2023-08-21T04:55:51;101533.09;;;24.71;100.00
54308;BME280;40208;39.778;2.710;2023-08-21T04:58:36;101596.84;;;25.06;100.00
54308;BME280;40208;39.778;2.710;2023-08-21T05:01:21;101666.47;;;25.46;100.00
54308;BME280;40208;39.778;2.710;2023-08-21T05:04:05;101680.19;;;25.54;100.00
54308;BME280;40208;39.778;2.710;2023-08-21T05:06:50;101652.59;;;25.29;100.00
54308;BME280;40208;39.778;2.710;2023-08-21T05:09:35;101689.63;;;25.50;100.00
54308;BME280;40208;39.778;2.710;2023-08-21T05:12:19;101672.50;;;25.39;100.00
54308;BME280;40208;39.778;2.710;2023-08-21T05:15:05;101580.81;;;24.83;100.00
54308;BME280;40208;39.778;2.710;2023-08-21T05:17:51;101686.78;;;25.42;100.00
54308;BME280;40208;39.778;2.710;2023-08-21T05:20:35;101694.94;;;25.51;100.00
54308;BME280;40208;39.778;2.710;2023-08-21T05:23:20;101558.69;;;24.68;100.00
54308;BME280;40208;39.778;2.710;2023-08-21T05:26:05;101629.16;;;25.09;100.00
54308;BME280;40208;39.778;2.710;2023-08-21T05:28:50;101611.72;;;25.02;100.00
54308;BME280;40208;39.778;2.710;2023-08-21T05:31:34;101690.22;;;25.34;100.00
54308;BME280;40208;39.778;2.710;2023-08-21T05:34:19;101710.25;;;25.43;100.00
54308;BME280;40208;39.778;2.710;2023-08-21T05:37:04;101616.13;;;24.83;100.00
54308;BME280;40208;39.778;2.710;2023-08-21T05:39:49;101694.78;;;25.33;100.00
54308;BME280;40208;39.778;2.710;2023-08-21T05:42:34;101673.50;;;25.19;100.00
54308;BME280;40208;39.778;2.710;2023-08-21T05:45:19;101696.06;;;25.29;100.00
54308;BME280;40208;39.778;2.710;2023-08-21T05:48:04;101699.94;;;25.27;100.00
54308;BME280;40208;39.778;2.710;2023-08-21T05:50:52;101703.09;;;25.22;100.00
54308;BME280;40208;39.778;2.710;2023-08-21T05:53:37;101699.69;;;25.20;100.00
54308;BME280;40208;39.778;2.710;2023-08-21T05:56:22;101673.88;;;25.05;100.00
54308;BME280;40208;39.778;2.710;2023-08-21T05:59:09;101716.97;;;25.29;100.00
54308;BME280;40208;39.778;2.710;2023-08-21T06:01:54;101718.41;;;25.33;100.00
54308;BME280;40208;39.778;2.710;2023-08-21T06:04:40;101717.25;;;25.35;100.00
54308;BME280;40208;39.778;2.710;2023-08-21T06:07:25;101716.25;;;25.27;100.00
54308;BME280;40208;39.778;2.710;2023-08-21T06:10:10;101593.38;;;24.55;100.00
54308;BME280;40208;39.778;2.710;2023-08-21T06:12:59;101718.53;;;25.22;100.00
54308;BME280;40208;39.778;2.710;2023-08-21T06:15:44;101731.28;;;25.31;100.00
54308;BME280;40208;39.778;2.710;2023-08-21T06:18:29;101717.97;;;25.18;100.00
54308;BME280;40208;39.778;2.710;2023-08-21T06:21:14;101633.38;;;24.63;100.00
54308;BME280;40208;39.778;2.710;2023-08-21T06:23:59;101656.13;;;24.81;100.00
54308;BME280;40208;39.778;2.710;2023-08-21T06:26:44;101710.47;;;25.10;100.00
54308;BME280;40208;39.778;2.710;2023-08-21T06:29:28;101721.09;;;25.13;100.00
54308;BME280;40208;39.778;2.710;2023-08-21T06:32:13;101700.72;;;24.88;100.00
54308;BME280;40208;39.778;2.710;2023-08-21T06:34:58;101739.13;;;25.24;100.00
54308;BME280;40208;39.778;2.710;2023-08-21T06:37:43;101604.09;;;24.47;100.00
54308;BME280;40208;39.778;2.710;2023-08-21T06:40:28;101673.03;;;24.94;100.00
54308;BME280;40208;39.778;2.710;2023-08-21T06:43:13;101717.97;;;25.18;100.00
54308;BME280;40208;39.778;2.710;2023-08-21T06:45:58;101649.25;;;24.77;100.00
54308;BME280;40208;39.778;2.710;2023-08-21T06:48:43;101680.16;;;24.86;100.00
54308;BME280;40208;39.778;2.710;2023-08-21T06:51:28;101739.13;;;25.34;100.00
54308;BME280;40208;39.778;2.710;2023-08-21T06:54:12;101703.50;;;25.17;100.00
54308;BME280;40208;39.778;2.710;2023-08-21T06:56:57;101693.34;;;25.20;100.00
54308;BME280;40208;39.778;2.710;2023-08-21T06:59:42;101699.69;;;25.30;100.00
54308;BME280;40208;39.778;2.710;2023-08-21T07:02:27;101633.28;;;24.93;100.00
54308;BME280;40208;39.778;2.710;2023-08-21T07:05:12;101741.28;;;25.59;100.00
54308;BME280;40208;39.778;2.710;2023-08-21T07:07:58;101730.69;;;25.66;100.00
54308;BME280;40208;39.778;2.710;2023-08-21T07:10:43;101681.63;;;25.38;100.00
54308;BME280;40208;39.778;2.710;2023-08-21T07:13:27;101660.47;;;25.32;100.00
54308;BME280;40208;39.778;2.710;2023-08-21T07:16:12;101730.25;;;25.80;100.00
54308;BME280;40208;39.778;2.710;2023-08-21T07:18:57;101595.13;;;25.05;100.00
54308;BME280;40208;39.778;2.710;2023-08-21T07:21:42;101735.56;;;25.92;100.00
54308;BME280;40208;39.778;2.710;2023-08-21T07:24:27;101741.97;;;26.00;100.00
54308;BME280;40208;39.778;2.710;2023-08-21T07:27:11;101735.09;;;26.06;100.00
54308;BME280;40208;39.778;2.710;2023-08-21T07:29:56;101732.63;;;26.13;100.00
54308;BME280;40208;39.778;2.710;2023-08-21T07:32:41;101694.59;;;25.93;100.00
54308;BME280;40208;39.778;2.710;2023-08-21T07:35:25;101732.00;;;26.29;100.00
54308;BME280;40208;39.778;2.710;2023-08-21T07:38:10;101655.25;;;25.78;100.00
54308;BME280;40208;39.778;2.710;2023-08-21T07:41:09;101677.78;;;26.08;100.00
54308;BME280;40208;39.778;2.710;2023-08-21T07:43:54;101732.53;;;26.42;100.00
54308;BME280;40208;39.778;2.710;2023-08-21T07:46:39;101737.50;;;26.56;100.00
54308;BME280;40208;39.778;2.710;2023-08-21T07:49:24;101722.88;;;26.57;100.00
54308;BME280;40208;39.778;2.710;2023-08-21T07:52:08;101729.53;;;26.73;100.00
54308;BME280;40208;39.778;2.710;2023-08-21T07:54:53;101697.69;;;26.55;100.00
54308;BME280;40208;39.778;2.710;2023-08-21T07:57:38;101726.50;;;26.76;100.00
54308;BME280;40208;39.778;2.710;2023-08-21T08:00:23;101720.16;;;26.85;100.00
54308;BME280;40208;39.778;2.710;2023-08-21T08:03:08;101681.81;;;26.69;100.00
54308;BME280;40208;39.778;2.710;2023-08-21T08:05:53;101729.22;;;27.03;100.00
54308;BME280;40208;39.778;2.710;2023-08-21T08:08:38;101607.06;;;26.35;100.00
54308;BME280;40208;39.778;2.710;2023-08-21T08:11:23;101741.28;;;27.19;100.00
54308;BME280;40208;39.778;2.710;2023-08-21T08:14:08;101623.44;;;26.53;100.00
54308;BME280;40208;39.778;2.710;2023-08-21T08:16:53;101731.59;;;27.34;100.00
54308;BME280;40208;39.778;2.710;2023-08-21T08:19:37;101678.44;;;27.02;100.00
54308;BME280;40208;39.778;2.710;2023-08-21T08:22:22;101713.34;;;27.35;100.00
54308;BME280;40208;39.778;2.710;2023-08-21T08:25:07;101736.25;;;27.60;100.00
54308;BME280;40208;39.778;2.710;2023-08-21T08:27:52;101731.69;;;27.68;100.00
54308;BME280;40208;39.778;2.710;2023-08-21T08:30:36;101541.16;;;26.59;100.00
54308;BME280;40208;39.778;2.710;2023-08-21T08:33:21;101737.47;;;27.83;100.00
54308;BME280;40208;39.778;2.710;2023-08-21T08:36:06;101704.97;;;27.72;100.00
54308;BME280;40208;39.778;2.710;2023-08-21T08:38:51;101737.06;;;27.96;100.00
54308;BME280;40208;39.778;2.710;2023-08-21T08:41:58;101732.69;;;28.03;100.00
54308;BME280;40208;39.778;2.710;2023-08-21T08:44:44;101738.34;;;28.10;100.00
54308;BME280;40208;39.778;2.710;2023-08-21T08:47:32;101737.88;;;28.15;100.00
54308;BME280;40208;39.778;2.710;2023-08-21T08:50:20;101732.59;;;28.21;100.00
54308;BME280;40208;39.778;2.710;2023-08-21T08:53:06;101654.47;;;27.86;100.00
54308;BME280;40208;39.778;2.710;2023-08-21T08:55:52;101721.19;;;28.26;100.00
54308;BME280;40208;39.778;2.710;2023-08-21T08:58:37;101722.09;;;28.34;100.00
54308;BME280;40208;39.778;2.710;2023-08-21T09:01:22;101726.13;;;28.48;100.00
54308;BME280;40208;39.778;2.710;2023-08-21T09:04:07;101672.19;;;28.16;100.00
54308;BME280;40208;39.778;2.710;2023-08-21T09:07:05;101695.34;;;28.38;100.00
54308;BME280;40208;39.778;2.710;2023-08-21T09:09:50;101700.69;;;28.48;100.00
54308;BME280;40208;39.778;2.710;2023-08-21T09:12:37;101691.81;;;28.54;100.00
54308;BME280;40208;39.778;2.710;2023-08-21T09:15:28;101683.47;;;28.56;100.00
54308;BME280;40208;39.778;2.710;2023-08-21T09:18:14;101716.69;;;28.85;100.00
54308;BME280;40208;39.778;2.710;2023-08-21T09:21:02;101674.97;;;28.67;100.00
54308;BME280;40208;39.778;2.710;2023-08-21T09:23:47;101705.25;;;28.90;100.00
54308;BME280;40208;39.778;2.710;2023-08-21T09:26:32;101711.09;;;29.03;100.00
54308;BME280;40208;39.778;2.710;2023-08-21T09:29:17;101707.81;;;29.00;100.00
54308;BME280;40208;39.778;2.710;2023-08-21T09:32:02;101718.81;;;29.16;100.00
54308;BME280;40208;39.778;2.710;2023-08-21T09:34:47;101645.81;;;28.84;100.00
54308;BME280;40208;39.778;2.710;2023-08-21T09:37:32;101711.69;;;29.31;100.00
54308;BME280;40208;39.778;2.710;2023-08-21T09:40:17;101625.50;;;28.86;100.00
54308;BME280;40208;39.778;2.710;2023-08-21T09:43:03;101712.19;;;29.43;100.00
54308;BME280;40208;39.778;2.710;2023-08-21T09:45:55;101711.88;;;29.54;100.00
54308;BME280;40208;39.778;2.710;2023-08-21T09:48:40;101669.97;;;29.29;100.00
54308;BME280;40208;39.778;2.710;2023-08-21T09:51:26;101707.06;;;29.56;100.00
54308;BME280;40208;39.778;2.710;2023-08-21T09:54:11;101451.78;;;28.10;100.00
54308;BME280;40208;39.778;2.710;2023-08-21T09:56:57;101725.56;;;29.79;100.00
54308;BME280;40208;39.778;2.710;2023-08-21T09:59:45;101675.94;;;29.57;100.00
54308;BME280;40208;39.778;2.710;2023-08-21T10:02:30;101713.41;;;29.82;100.00
54308;BME280;40208;39.778;2.710;2023-08-21T10:05:19;101720.75;;;29.97;100.00
54308;BME280;40208;39.778;2.710;2023-08-21T10:08:05;101647.91;;;29.55;100.00
54308;BME280;40208;39.778;2.710;2023-08-21T10:10:50;101710.47;;;29.99;100.00
54308;BME280;40208;39.778;2.710;2023-08-21T10:13:37;101732.66;;;30.13;100.00
54308;BME280;40208;39.778;2.710;2023-08-21T10:16:23;101723.75;;;30.19;100.00
54308;BME280;40208;39.778;2.710;2023-08-21T10:19:08;101688.41;;;29.93;100.00
54308;BME280;40208;39.778;2.710;2023-08-21T10:21:55;101727.34;;;30.19;100.00
54308;BME280;40208;39.778;2.710;2023-08-21T10:24:41;101738.81;;;30.31;100.00
54308;BME280;40208;39.778;2.710;2023-08-21T10:27:33;101624.81;;;29.66;100.00
54308;BME280;40208;39.778;2.710;2023-08-21T10:30:26;101736.41;;;30.36;100.00
54308;BME280;40208;39.778;2.710;2023-08-21T10:33:11;101633.88;;;29.83;100.00
54308;BME280;40208;39.778;2.710;2023-08-21T10:35:56;101715.84;;;30.32;100.00
54308;BME280;40208;39.778;2.710;2023-08-21T10:39:14;101729.19;;;30.43;100.00
54308;BME280;40208;39.778;2.710;2023-08-21T10:42:10;101740.81;;;30.46;100.00
54308;BME280;40208;39.778;2.710;2023-08-21T10:45:10;101731.38;;;30.48;100.00
54308;BME280;40208;39.778;2.710;2023-08-21T10:47:58;101682.50;;;30.20;100.00
54308;BME280;40208;39.778;2.710;2023-08-21T10:50:43;101692.56;;;30.36;100.00
54308;BME280;40208;39.778;2.710;2023-08-21T10:53:28;101683.66;;;30.34;100.00
54308;BME280;40208;39.778;2.710;2023-08-21T10:56:13;101728.44;;;30.58;100.00
54308;BME280;40208;39.778;2.710;2023-08-21T10:58:58;101699.06;;;30.43;100.00
54308;BME280;40208;39.778;2.710;2023-08-21T11:01:44;101694.94;;;30.48;100.00
54308;BME280;40208;39.778;2.710;2023-08-21T11:04:29;101718.66;;;30.63;100.00
54308;BME280;40208;39.778;2.710;2023-08-21T11:07:13;101713.19;;;30.63;100.00
54308;BME280;40208;39.778;2.710;2023-08-21T11:09:58;101704.75;;;30.65;100.00
54308;BME280;40208;39.778;2.710;2023-08-21T11:12:56;101719.13;;;30.75;100.00
54308;BME280;40208;39.778;2.710;2023-08-21T11:15:41;101633.03;;;30.30;100.00
54308;BME280;40208;39.778;2.710;2023-08-21T11:18:35;101711.72;;;30.84;100.00
54308;BME280;40208;39.778;2.710;2023-08-21T11:21:22;101690.00;;;30.74;100.00
54308;BME280;40208;39.778;2.710;2023-08-21T11:24:07;101692.53;;;30.84;100.00
54308;BME280;40208;39.778;2.710;2023-08-21T11:26:53;101653.78;;;30.56;100.00
54308;BME280;40208;39.778;2.710;2023-08-21T11:29:46;101692.16;;;30.87;100.00
54308;BME280;40208;39.778;2.710;2023-08-21T11:32:31;101627.44;;;30.47;100.00
54308;BME280;40208;39.778;2.710;2023-08-21T11:35:16;101658.16;;;30.73;100.00
54308;BME280;40208;39.778;2.710;2023-08-21T11:38:01;101567.31;;;30.22;100.00
54308;BME280;40208;39.778;2.710;2023-08-21T11:43:43;101644.63;;;30.72;100.00
54308;BME280;40208;39.778;2.710;2023-08-21T11:46:27;101614.72;;;30.62;100.00
54308;BME280;40208;39.778;2.710;2023-08-21T11:49:12;101652.44;;;30.83;100.00
54308;BME280;40208;39.778;2.710;2023-08-21T11:51:57;101681.97;;;31.04;100.00
54308;BME280;40208;39.778;2.710;2023-08-21T11:54:42;101680.91;;;31.05;100.00
54308;BME280;40208;39.778;2.710;2023-08-21T11:57:27;101679.88;;;31.06;100.00
54308;BME280;40208;39.778;2.710;2023-08-21T12:00:15;101683.66;;;31.05;100.00
54308;BME280;40208;39.778;2.710;2023-08-21T12:03:03;101673.19;;;31.09;100.00
54308;BME280;40208;39.778;2.710;2023-08-21T12:05:51;101666.72;;;31.01;100.00
54308;BME280;40208;39.778;2.710;2023-08-21T12:08:36;101686.31;;;31.13;100.00
54308;BME280;40208;39.778;2.710;2023-08-21T12:11:21;101594.25;;;30.73;100.00
54308;BME280;40208;39.778;2.710;2023-08-21T12:14:06;101651.56;;;31.14;100.00
54308;BME280;40208;39.778;2.710;2023-08-21T12:16:51;101555.34;;;30.54;100.00
54308;BME280;40208;39.778;2.710;2023-08-21T12:19:36;101672.88;;;31.26;100.00
54308;BME280;40208;39.778;2.710;2023-08-21T12:22:21;101668.91;;;31.29;100.00
54308;BME280;40208;39.778;2.710;2023-08-21T12:25:06;101671.25;;;31.32;100.00
54308;BME280;40208;39.778;2.710;2023-08-21T12:27:51;101596.72;;;30.91;100.00
54308;BME280;40208;39.778;2.710;2023-08-21T12:30:36;101666.34;;;31.27;100.00
54308;BME280;40208;39.778;2.710;2023-08-21T12:33:21;101602.66;;;30.94;100.00
54308;BME280;40208;39.778;2.710;2023-08-21T12:36:06;101673.81;;;31.42;100.00
54308;BME280;40208;39.778;2.710;2023-08-21T12:38:53;101652.94;;;31.33;100.00
54308;BME280;40208;39.778;2.710;2023-08-21T12:41:37;101673.44;;;31.45;100.00
54308;BME280;40208;39.778;2.710;2023-08-21T12:44:22;101626.97;;;31.20;100.00
54308;BME280;40208;39.778;2.710;2023-08-21T12:47:07;101656.69;;;31.40;100.00
54308;BME280;40208;39.778;2.710;2023-08-21T12:49:52;101605.91;;;31.21;100.00
54308;BME280;40208;39.778;2.710;2023-08-21T12:52:37;101604.66;;;31.23;100.00
54308;BME280;40208;39.778;2.710;2023-08-21T12:55:23;101524.31;;;30.77;100.00
54308;BME280;40208;39.778;2.710;2023-08-21T12:58:08;101645.44;;;31.50;100.00
54308;BME280;40208;39.778;2.710;2023-08-21T13:00:53;101534.41;;;30.84;100.00
54308;BME280;40208;39.778;2.710;2023-08-21T13:03:37;101632.28;;;31.45;100.00
54308;BME280;40208;39.778;2.710;2023-08-21T13:06:22;101649.81;;;31.59;100.00
54308;BME280;40208;39.778;2.710;2023-08-21T13:09:07;101634.25;;;31.51;100.00
54308;BME280;40208;39.778;2.710;2023-08-21T13:11:53;101643.09;;;31.61;100.00
54308;BME280;40208;39.778;2.710;2023-08-21T13:14:38;101615.13;;;31.43;100.00
54308;BME280;40208;39.778;2.710;2023-08-21T13:17:23;101630.09;;;31.55;100.00
54308;BME280;40208;39.778;2.710;2023-08-21T13:20:09;101623.78;;;31.55;100.00
54308;BME280;40208;39.778;2.710;2023-08-21T13:22:55;101594.56;;;31.39;100.00
54308;BME280;40208;39.778;2.710;2023-08-21T13:25:40;101593.56;;;31.40;100.00
54308;BME280;40208;39.778;2.710;2023-08-21T13:28:25;101572.72;;;31.31;100.00
54308;BME280;40208;39.778;2.710;2023-08-21T13:31:10;101614.97;;;31.59;100.00
54308;BME280;40208;39.778;2.710;2023-08-21T13:33:56;101537.50;;;31.19;100.00
54308;BME280;40208;39.778;2.710;2023-08-21T13:36:40;101606.91;;;31.58;100.00
54308;BME280;40208;39.778;2.710;2023-08-21T13:39:25;101634.19;;;31.74;100.00
54308;BME280;40208;39.778;2.710;2023-08-21T13:42:11;101531.19;;;31.19;100.00
54308;BME280;40208;39.778;2.710;2023-08-21T13:44:56;101586.41;;;31.54;100.00
54308;BME280;40208;39.778;2.710;2023-08-21T13:47:46;101549.53;;;31.33;100.00
54308;BME280;40208;39.778;2.710;2023-08-21T13:50:34;101601.16;;;31.67;100.00
54308;BME280;40208;39.778;2.710;2023-08-21T13:53:19;101574.56;;;31.53;100.00
54308;BME280;40208;39.778;2.710;2023-08-21T13:56:03;101572.59;;;31.47;100.00
54308;BME280;40208;39.778;2.710;2023-08-21T13:58:48;101600.19;;;31.60;100.00
54308;BME280;40208;39.778;2.710;2023-08-21T14:01:33;101624.44;;;31.72;100.00
54308;BME280;40208;39.778;2.710;2023-08-21T14:04:18;101509.50;;;31.09;100.00
54308;BME280;40208;39.778;2.710;2023-08-21T14:07:03;101623.50;;;31.79;100.00
54308;BME280;40208;39.778;2.710;2023-08-21T14:09:48;101593.03;;;31.59;100.00
54308;BME280;40208;39.778;2.710;2023-08-21T14:12:33;101512.81;;;31.19;100.00
54308;BME280;40208;39.778;2.710;2023-08-21T14:15:17;101588.38;;;31.60;100.00
54308;BME280;40208;39.778;2.710;2023-08-21T14:18:02;101562.84;;;31.44;100.00
54308;BME280;40208;39.778;2.710;2023-08-21T14:20:47;101536.38;;;31.28;100.00